• Join FlightAware (Why Join?)
  • Login
  • US Flag 
01:43PM EDT


 

Airport Tracker/Info


-or-


 

Live Flight TrackerFlight Track Log ✈ ASQ5740 ✈ 27-Sep-2013 ✈ KGSP - KIAD

Flight Track Log - Related Links

Times and Time Zones

All times are in EDT time to prevent confusion due to time zone crossing. See the ASQ5740 flight status page for this flight to view local times or setup timezone preferences in your user account.

Time Position Orientation Groundspeed Altitude Reporting Facility
EDT Latitude Longitude Course Direction KTS MPH feet Rate Location/Type
03:52PM 35.2041 -81.8810 North  Level Estimated
03:53PM 35.2811 -81.7961 80° East  Level Estimated
03:53PM 35.1511 -82.0397 30° Northeast 294 338 10,400  Level Atlanta Center
03:54PM 35.3580 -81.7111 71° East  Level Estimated
03:54PM 35.2233 -81.9869 31° Northeast 289 333 12,400  Level Atlanta Center
03:55PM 35.4549 -81.6662 21° North  Level FlightAware Approximate
03:55PM 35.2847 -81.9142 44° Northeast 297 342 14,700  Level Atlanta Center
03:56PM 35.5312 -81.5801 73° East  Level Estimated
03:56PM 35.3206 -81.8217 65° Northeast 292 336 16,500  Level Atlanta Center
03:57PM 35.3586 -81.7342 62° Northeast 302 348 17,700 720 Climbing Atlanta Center
03:58PM 35.4133 -81.6458 53° Northeast 321 369 18,000 1,020 Climbing Atlanta Center
03:59PM 35.4550 -81.5375 65° Northeast 339 390 19,800 1,680 Climbing Atlanta Center
04:00PM 35.4967 -81.4317 64° Northeast 339 390 21,400 1,200 Climbing Atlanta Center
04:02PM 35.5772 -81.2069 66° East 352 405 23,500 1,020 Climbing Atlanta Center
04:03PM 35.6283 -81.0828 63° Northeast 368 423 24,600 1,020 Climbing Atlanta Center
04:04PM 35.6736 -80.9661 64° Northeast 368 423 25,600 900 Climbing Atlanta Center
04:05PM 35.7106 -80.8647 66° East 368 423 26,500 900 Climbing Atlanta Center
04:06PM 35.7536 -80.7556 64° Northeast 363 418 27,500 900 Climbing Atlanta Center
04:07PM 35.7964 -80.6414 65° Northeast 363 418 28,400 720 Climbing Atlanta Center
04:08PM 35.8411 -80.5242 65° Northeast 363 418 29,000 300 Climbing Atlanta Center
04:09PM 35.8817 -80.4097 66° East 363 418 29,000  Level Atlanta Center
04:11PM 35.9889 -80.1256 65° Northeast 376 433 29,000  Level Washington Center
04:12PM 36.0303 -80.0175 65° Northeast 358 412 29,000  Level Washington Center
04:13PM 36.0864 -79.9100 57° Northeast 358 412 29,000  Level Washington Center
04:14PM 36.1444 -79.8078 55° Northeast 358 412 29,000  Level Washington Center
04:15PM 36.2003 -79.7028 57° Northeast 363 418 29,000  Level Washington Center
04:16PM 36.2533 -79.6103 55° Northeast 363 418 29,000  Level Washington Center
04:17PM 36.3178 -79.4975 55° Northeast 368 423 29,000  Level Washington Center
04:18PM 36.3772 -79.3947 54° Northeast 368 423 29,000  Level Washington Center
04:19PM 36.4283 -79.2964 57° Northeast 368 423 29,000 -540 Level Washington Center
04:20PM 36.4944 -79.1808 55° Northeast 368 423 28,000 -900 Descending Washington Center
04:21PM 36.5472 -79.0900 54° Northeast 368 423 27,200 -900 Descending Washington Center
04:22PM 36.6067 -78.9842 55° Northeast 368 423 26,200 -1,080 Descending Washington Center
04:23PM 36.6683 -78.8650 57° Northeast 368 423 25,100 -660 Descending Washington Center
04:24PM 36.7189 -78.7764 55° Northeast 363 418 25,000 -60 Descending Washington Center
04:25PM 36.7736 -78.6750 56° Northeast 358 412 25,000  Level Washington Center
04:26PM 36.8261 -78.5758 56° Northeast 346 398 25,000 -300 Level Washington Center
04:27PM 36.8783 -78.4869 54° Northeast 341 392 24,500 -720 Descending Washington Center
04:28PM 36.9331 -78.3853 56° Northeast 349 402 23,700 -900 Descending Washington Center
04:29PM 36.9983 -78.2600 57° Northeast 354 407 22,800 -900 Descending Washington Center
04:30PM 37.0625 -78.1894 41° Northeast 343 395 22,000 -420 Descending Washington Center
04:31PM 37.1433 -78.1269 32° Northeast 318 366 22,000  Level Washington Center
04:32PM 37.2194 -78.0669 32° Northeast 318 366 22,000  Level Washington Center
04:33PM 37.2981 -78.0069 31° Northeast 318 366 22,000  Level Washington Center
04:34PM 37.3764 -77.9467 31° Northeast 324 373 22,000  Level Washington Center
04:35PM 37.4525 -77.8886 31° Northeast 324 373 22,000 -180 Level Washington Center
04:36PM 37.5331 -77.8283 31° Northeast 324 373 21,700 -900 Descending Washington Center
04:37PM 37.6131 -77.7783 26° Northeast 319 367 20,300 -1,440 Descending Washington Center
04:38PM 37.6911 -77.7333 25° Northeast 307 353 18,900 -1,320 Descending Washington Center
04:39PM 37.7692 -77.6881 25° Northeast 302 348 17,700 -1,440 Descending Washington Center
04:40PM 37.8469 -77.6431 25° Northeast 302 348 16,000 -1,740 Descending Washington Center
04:41PM 37.9269 -77.5978 24° Northeast 302 348 14,300 -1,740 Descending Washington Center
04:42PM 38.0031 -77.5497 26° Northeast 302 348 12,600 -1,620 Descending Washington Center
04:43PM 38.0767 -77.5094 23° Northeast 296 341 11,100 -1,380 Descending Washington Center
04:44PM 38.1481 -77.4664 25° Northeast 296 341 10,000 -840 Descending Washington Center
04:45PM 38.2197 -77.4258 24° Northeast 284 327 9,500 -1,020 Descending Washington Center
04:46PM 38.2922 -77.4594 340° North 253 291 8,000 -1,260 Descending Washington Center
04:47PM 38.3650 -77.4719 352° North 258 297 7,000 -540 Descending Washington Center
04:48PM 38.4381 -77.4711 North 258 297 7,000 -900 Level Washington Center
04:49PM 38.5089 -77.4703 North 253 291 5,300 -1,320 Descending Washington Center
04:50PM 38.5797 -77.4667 North 253 291 4,400 -1,020 Descending Washington Center
04:51PM 38.6528 -77.4686 359° North 253 291 3,300 -720 Descending Washington Center
04:52PM 38.7258 -77.4650 North 253 291 3,000 -240 Descending Washington Center
04:53PM 38.7667 -77.4667 358° North 257 296 3,000 -420 Level Potomac TRACON
04:54PM 38.8333 -77.4667 360° North 203 234 2,400 -780 Descending Potomac TRACON
04:55PM 38.8833 -77.4667 360° North 150 173 1,500 -840 Descending Potomac TRACON
04:56PM 38.9167 -77.4667 360° North 143 165 800 -720 Descending Potomac TRACON